createdAt,value
2019-02-23T00:01:28.551Z,22.23
2019-02-23T00:03:56.903Z,22.87
2019-02-23T00:06:29.734Z,22.87
2019-02-23T00:08:56.065Z,23.00
2019-02-23T00:11:25.198Z,21.37
2019-02-23T00:13:53.537Z,23.73
2019-02-23T00:16:22.141Z,22.27
2019-02-23T00:18:50.505Z,21.50
2019-02-23T00:21:18.930Z,22.70
2019-02-23T00:23:47.274Z,20.43
2019-02-23T00:26:15.632Z,21.57
2019-02-23T00:28:43.973Z,21.60
2019-02-23T00:31:12.323Z,21.87
2019-02-23T00:33:40.666Z,20.30
2019-02-23T00:36:09.197Z,21.50
2019-02-23T00:38:37.611Z,20.23
2019-02-23T00:41:05.959Z,21.70
2019-02-23T00:43:34.305Z,19.73
2019-02-23T00:46:02.697Z,21.27
2019-02-23T00:48:31.048Z,20.33
2019-02-23T00:50:59.389Z,20.37
2019-02-23T00:53:27.735Z,20.03
2019-02-23T00:55:56.090Z,20.80
2019-02-23T00:58:24.432Z,19.67
2019-02-23T01:00:52.781Z,18.83
2019-02-23T01:03:22.198Z,19.17
2019-02-23T01:05:50.540Z,18.77
2019-02-23T01:08:20.521Z,20.40
2019-02-23T01:10:57.782Z,19.43
2019-02-23T01:13:19.589Z,19.63
2019-02-23T01:15:47.937Z,19.40
2019-02-23T01:18:16.278Z,19.83
2019-02-23T01:20:44.633Z,19.67
2019-02-23T01:23:12.991Z,19.17
2019-02-23T01:25:41.337Z,18.40
2019-02-23T01:28:09.763Z,19.30
2019-02-23T01:30:38.149Z,18.33
2019-02-23T01:33:06.505Z,19.10
2019-02-23T01:35:34.853Z,19.80
2019-02-23T01:38:03.215Z,18.60
2019-02-23T01:40:31.566Z,17.60
2019-02-23T01:42:59.920Z,18.23
2019-02-23T01:45:28.261Z,18.60
2019-02-23T01:47:56.618Z,19.77
2019-02-23T01:50:24.968Z,17.43
2019-02-23T01:52:53.331Z,17.13
2019-02-23T01:55:21.685Z,18.43
2019-02-23T01:57:50.079Z,17.90
2019-02-23T02:00:18.669Z,17.37
2019-02-23T02:02:48.570Z,18.17
2019-02-23T02:05:16.913Z,18.33
2019-02-23T02:07:45.279Z,16.40
2019-02-23T02:10:13.705Z,17.60
2019-02-23T02:12:42.050Z,17.47
2019-02-23T02:15:11.480Z,17.63
2019-02-23T02:17:39.827Z,16.77
2019-02-23T02:20:11.351Z,16.97
2019-02-23T02:22:39.674Z,17.63
2019-02-23T02:25:08.386Z,16.17
2019-02-23T02:27:36.726Z,17.00
2019-02-23T02:30:06.651Z,17.80
2019-02-23T02:32:35.900Z,17.30
2019-02-23T02:35:08.293Z,16.40
2019-02-23T02:37:38.235Z,17.73
2019-02-23T02:40:07.305Z,17.80
2019-02-23T02:42:37.962Z,15.97
2019-02-23T02:45:08.549Z,16.73
2019-02-23T02:47:36.899Z,16.07
2019-02-23T02:50:07.484Z,16.67
2019-02-23T02:52:35.833Z,18.37
2019-02-23T02:55:05.154Z,16.03
2019-02-23T02:57:33.501Z,16.47
2019-02-23T03:00:01.867Z,15.57
2019-02-23T03:02:30.697Z,16.37
2019-02-23T03:04:59.601Z,14.90
2019-02-23T03:07:28.237Z,16.57
2019-02-23T03:09:56.590Z,17.53
2019-02-23T03:12:24.945Z,17.67
2019-02-23T03:14:53.297Z,15.83
2019-02-23T03:17:21.654Z,16.97
2019-02-23T03:19:50.026Z,15.67
2019-02-23T03:22:18.366Z,15.57
2019-02-23T03:24:46.728Z,16.37
2019-02-23T03:27:15.091Z,16.43
2019-02-23T03:29:43.442Z,16.10
2019-02-23T03:32:11.800Z,16.70
2019-02-23T03:34:40.217Z,16.47
2019-02-23T03:37:08.558Z,16.17
2019-02-23T03:39:36.913Z,15.10
2019-02-23T03:42:05.266Z,16.97
2019-02-23T03:44:35.041Z,16.70
2019-02-23T03:47:03.342Z,16.33
2019-02-23T03:49:35.283Z,15.83
2019-02-23T03:52:03.372Z,17.07
2019-02-23T03:54:31.726Z,16.60
2019-02-23T03:57:01.146Z,15.63
2019-02-23T03:59:30.761Z,16.90
2019-02-23T04:01:59.120Z,16.60
2019-02-23T04:04:27.457Z,15.87
2019-02-23T04:06:55.810Z,16.97
2019-02-23T04:09:24.165Z,16.10
2019-02-23T04:11:52.500Z,16.87
2019-02-23T04:14:20.856Z,15.83
2019-02-23T04:16:50.357Z,16.17
2019-02-23T04:19:18.718Z,17.10
2019-02-23T04:21:47.058Z,15.53
2019-02-23T04:24:15.429Z,16.73
2019-02-23T04:26:43.779Z,15.67
2019-02-23T04:29:13.550Z,15.53
2019-02-23T04:31:41.890Z,16.53
2019-02-23T04:34:10.241Z,16.77
2019-02-23T04:36:38.585Z,16.10
2019-02-23T04:39:06.944Z,15.13
2019-02-23T04:41:35.649Z,17.57
2019-02-23T04:44:04.018Z,16.37
2019-02-23T04:46:32.362Z,15.23
2019-02-23T04:49:01.048Z,16.23
2019-02-23T04:51:29.385Z,16.63
2019-02-23T04:53:57.737Z,15.13
2019-02-23T04:56:26.089Z,15.67
2019-02-23T04:58:54.452Z,16.33
2019-02-23T05:01:22.789Z,16.97
2019-02-23T05:03:51.129Z,15.03
2019-02-23T05:06:19.494Z,15.63
2019-02-23T05:08:52.882Z,15.17
2019-02-23T05:11:21.217Z,15.67
2019-02-23T05:13:49.575Z,15.83
2019-02-23T05:16:17.934Z,17.17
2019-02-23T05:18:46.281Z,15.40
2019-02-23T05:21:25.747Z,16.60
2019-02-23T05:23:44.685Z,16.47
2019-02-23T05:26:13.029Z,14.77
2019-02-23T05:28:41.383Z,16.27
2019-02-23T05:31:09.737Z,15.77
2019-02-23T05:33:38.378Z,14.27
2019-02-23T05:36:07.747Z,14.07
2019-02-23T05:38:37.239Z,16.47
2019-02-23T05:41:08.130Z,14.70
2019-02-23T05:43:36.469Z,14.93
2019-02-23T05:46:10.526Z,14.60
2019-02-23T05:48:39.602Z,16.00
2019-02-23T05:51:10.356Z,15.10
2019-02-23T05:53:38.707Z,14.70
2019-02-23T05:56:08.134Z,15.80
2019-02-23T05:58:37.870Z,15.27
2019-02-23T06:01:06.222Z,14.07
2019-02-23T06:03:34.580Z,16.73
2019-02-23T06:06:02.909Z,14.97
2019-02-23T06:08:31.257Z,16.13
2019-02-23T06:11:01.598Z,16.33
2019-02-23T06:13:29.946Z,14.73
2019-02-23T06:15:59.297Z,13.80
2019-02-23T06:18:27.941Z,15.67
2019-02-23T06:20:56.295Z,15.17
2019-02-23T06:23:26.111Z,14.43
2019-02-23T06:25:54.454Z,15.50
2019-02-23T06:28:22.793Z,15.43
2019-02-23T06:30:53.745Z,15.03
2019-02-23T06:33:22.148Z,14.53
2019-02-23T06:35:50.503Z,15.03
2019-02-23T06:38:18.838Z,14.73
2019-02-23T06:40:51.237Z,13.97
2019-02-23T06:43:20.867Z,14.27
2019-02-23T06:45:49.212Z,15.33
2019-02-23T06:48:19.875Z,13.90
2019-02-23T06:50:49.166Z,14.73
2019-02-23T06:53:19.100Z,14.37
2019-02-23T06:55:47.457Z,14.67
2019-02-23T06:58:15.843Z,15.47
2019-02-23T07:00:46.579Z,15.17
2019-02-23T07:03:14.923Z,15.97
2019-02-23T07:05:43.341Z,15.13
2019-02-23T07:08:12.237Z,15.83
2019-02-23T07:10:40.585Z,13.80
2019-02-23T07:13:08.986Z,14.60
2019-02-23T07:15:38.428Z,14.83
2019-02-23T07:18:09.031Z,14.67
2019-02-23T07:20:44.335Z,15.27
2019-02-23T07:23:09.773Z,15.27
2019-02-23T07:25:40.206Z,15.17
2019-02-23T07:28:10.867Z,15.23
2019-02-23T07:30:39.606Z,15.30
2019-02-23T07:33:07.956Z,15.07
2019-02-23T07:35:39.364Z,15.07
2019-02-23T07:38:07.707Z,17.47
2019-02-23T07:40:38.140Z,16.47
2019-02-23T07:43:08.576Z,17.43
2019-02-23T07:45:38.329Z,16.13
2019-02-23T07:48:06.679Z,14.90
2019-02-23T07:50:36.650Z,15.40
2019-02-23T07:53:05.132Z,15.37
2019-02-23T07:55:34.713Z,14.77
2019-02-23T07:58:03.014Z,16.07
2019-02-23T08:00:32.634Z,17.50
2019-02-23T08:03:00.989Z,16.00
2019-02-23T08:05:29.338Z,17.13
2019-02-23T08:07:57.761Z,16.07
2019-02-23T08:10:26.115Z,17.10
2019-02-23T08:12:54.480Z,16.33
2019-02-23T08:15:23.657Z,15.87
2019-02-23T08:17:52.190Z,17.60
2019-02-23T08:20:20.525Z,15.50
2019-02-23T08:22:48.899Z,16.00
2019-02-23T08:25:17.238Z,15.20
2019-02-23T08:27:45.653Z,16.90
2019-02-23T08:30:14.775Z,15.00
2019-02-23T08:32:43.199Z,16.47
2019-02-23T08:35:12.021Z,16.27
2019-02-23T08:37:40.408Z,15.67
2019-02-23T08:40:10.465Z,17.43
2019-02-23T08:42:38.823Z,16.53
2019-02-23T08:45:07.946Z,14.57
2019-02-23T08:47:36.290Z,15.63
2019-02-23T08:50:06.270Z,17.57
2019-02-23T08:52:34.618Z,16.57
2019-02-23T08:55:03.077Z,15.50
2019-02-23T08:57:31.434Z,19.63
2019-02-23T08:59:59.796Z,16.33
2019-02-23T09:02:28.145Z,16.97
2019-02-23T09:04:58.280Z,16.83
2019-02-23T09:07:26.629Z,16.43
2019-02-23T09:09:54.977Z,17.13
2019-02-23T09:12:23.328Z,15.73
2019-02-23T09:14:51.688Z,16.50
2019-02-23T09:17:20.031Z,17.30
2019-02-23T09:19:48.386Z,17.87
2019-02-23T09:22:16.730Z,14.80
2019-02-23T09:24:45.082Z,17.30
2019-02-23T09:27:13.433Z,15.83
2019-02-23T09:29:41.773Z,16.13
2019-02-23T09:32:10.117Z,16.40
2019-02-23T09:34:38.477Z,16.67
2019-02-23T09:37:06.821Z,16.63
2019-02-23T09:39:35.162Z,14.87
2019-02-23T09:42:07.381Z,17.23
2019-02-23T09:44:33.565Z,15.60
2019-02-23T09:47:01.915Z,16.87
2019-02-23T09:49:30.279Z,18.60
2019-02-23T09:51:58.613Z,17.67
2019-02-23T09:54:26.961Z,18.00
2019-02-23T09:56:55.322Z,18.57
2019-02-23T09:59:24.835Z,16.83
2019-02-23T10:01:53.201Z,16.57
2019-02-23T10:04:22.330Z,17.73
2019-02-23T10:06:50.668Z,16.77
2019-02-23T10:09:19.029Z,16.83
2019-02-23T10:11:47.386Z,17.63
2019-02-23T10:14:15.749Z,15.80
2019-02-23T10:16:45.269Z,19.90
2019-02-23T10:19:13.623Z,15.80
2019-02-23T10:21:41.962Z,18.80
2019-02-23T10:24:10.378Z,18.93
2019-02-23T10:26:38.733Z,19.03
2019-02-23T10:29:07.098Z,15.20
2019-02-23T10:31:36.511Z,14.93
2019-02-23T10:34:05.659Z,18.47
2019-02-23T10:36:34.094Z,20.17
2019-02-23T10:39:02.446Z,20.50
2019-02-23T10:41:32.414Z,19.97
2019-02-23T10:44:00.761Z,19.00
2019-02-23T10:46:29.105Z,18.67
2019-02-23T10:48:57.467Z,20.43
2019-02-23T10:51:25.809Z,24.27
2019-02-23T10:53:56.342Z,21.93
2019-02-23T10:56:24.681Z,20.73
2019-02-23T10:58:53.029Z,20.17
2019-02-23T11:01:21.387Z,18.97
2019-02-23T11:03:49.730Z,19.43
2019-02-23T11:06:18.089Z,19.63
2019-02-23T11:08:46.509Z,20.93
2019-02-23T11:11:14.861Z,21.13
2019-02-23T11:13:43.220Z,22.20
2019-02-23T11:16:11.946Z,18.70
2019-02-23T11:18:40.305Z,20.53
2019-02-23T11:21:08.644Z,21.93
2019-02-23T11:23:44.220Z,18.77
2019-02-23T11:26:07.120Z,21.97
2019-02-23T11:28:35.470Z,20.90
2019-02-23T11:31:03.818Z,22.00
2019-02-23T11:33:32.182Z,21.33
2019-02-23T11:36:00.525Z,24.27
2019-02-23T11:38:28.883Z,22.33
2019-02-23T11:40:57.233Z,23.53
2019-02-23T11:43:25.591Z,23.27
2019-02-23T11:45:53.949Z,23.17
2019-02-23T11:48:22.309Z,24.10
2019-02-23T11:50:52.124Z,22.10
2019-02-23T11:53:20.538Z,23.17
2019-02-23T11:55:48.880Z,20.40
2019-02-23T11:58:18.606Z,21.27
2019-02-23T12:00:46.973Z,20.63
2019-02-23T12:03:15.321Z,20.17
2019-02-23T12:05:43.667Z,18.43
2019-02-23T12:08:12.016Z,20.83
2019-02-23T12:10:40.361Z,22.47
2019-02-23T12:13:08.848Z,20.47
2019-02-23T12:15:37.322Z,20.13
2019-02-23T12:18:05.678Z,21.40
2019-02-23T12:20:34.991Z,20.47
2019-02-23T12:23:03.354Z,19.90
2019-02-23T12:25:31.693Z,20.03
2019-02-23T12:28:00.046Z,19.03
2019-02-23T12:30:28.420Z,17.40
2019-02-23T12:32:56.761Z,18.13
2019-02-23T12:35:25.118Z,20.07
2019-02-23T12:37:53.462Z,18.13
2019-02-23T12:40:21.813Z,17.63
2019-02-23T12:42:50.661Z,17.43
2019-02-23T12:45:19.004Z,18.37
2019-02-23T12:47:47.358Z,19.47
2019-02-23T12:50:15.702Z,20.37
2019-02-23T12:52:44.058Z,19.77
2019-02-23T12:55:12.399Z,18.73
2019-02-23T12:57:40.817Z,18.63
2019-02-23T13:00:11.762Z,18.50
2019-02-23T13:02:40.187Z,17.97
2019-02-23T13:05:08.611Z,19.60
2019-02-23T13:07:37.303Z,18.23
2019-02-23T13:10:07.326Z,18.40
2019-02-23T13:12:37.382Z,19.13
2019-02-23T13:15:07.364Z,17.93
2019-02-23T13:17:40.154Z,17.30
2019-02-23T13:20:12.813Z,16.83
2019-02-23T13:22:44.629Z,17.83
2019-02-23T13:25:20.146Z,16.80
2019-02-23T13:27:50.126Z,15.67
2019-02-23T13:30:32.277Z,15.77
2019-02-23T13:33:02.274Z,15.40
2019-02-23T13:35:44.249Z,15.60
2019-02-23T13:38:14.239Z,14.53
2019-02-23T13:40:46.890Z,15.23
2019-02-23T13:43:16.865Z,14.23
2019-02-23T13:46:05.234Z,14.83
2019-02-23T13:48:35.210Z,14.20
2019-02-23T13:51:11.775Z,13.30
2019-02-23T13:53:41.760Z,12.57
2019-02-23T13:56:11.731Z,13.77
2019-02-23T13:58:47.793Z,11.67
2019-02-23T14:01:16.173Z,11.83
2019-02-23T14:03:57.620Z,13.10
2019-02-23T14:06:27.578Z,12.40
2019-02-23T14:09:14.269Z,12.53
2019-02-23T14:11:47.229Z,13.37
2019-02-23T14:14:19.858Z,12.63
2019-02-23T14:16:52.761Z,12.70
2019-02-23T14:19:22.747Z,11.87
2019-02-23T14:21:55.633Z,12.17
2019-02-23T14:24:25.624Z,10.47
2019-02-23T14:27:04.685Z,11.93
2019-02-23T14:29:49.843Z,13.87
2019-02-23T14:32:19.818Z,10.90
2019-02-23T14:34:55.793Z,13.27
2019-02-23T14:37:35.282Z,12.40
2019-02-23T14:40:20.533Z,12.30
2019-02-23T14:43:12.064Z,12.27
2019-02-23T14:45:42.393Z,11.47
2019-02-23T14:48:12.479Z,10.93
2019-02-23T14:50:45.464Z,11.40
2019-02-23T14:53:21.445Z,12.47
2019-02-23T14:55:51.478Z,11.43
2019-02-23T14:58:21.466Z,11.43
2019-02-23T15:01:06.645Z,11.70
2019-02-23T15:03:48.649Z,11.77
2019-02-23T15:06:27.698Z,12.37
2019-02-23T15:09:06.721Z,12.10
2019-02-23T15:11:53.294Z,12.73
2019-02-23T15:14:27.393Z,10.93
2019-02-23T15:17:09.458Z,13.40
2019-02-23T15:19:39.437Z,12.10
2019-02-23T15:22:12.394Z,10.90
2019-02-23T15:25:12.449Z,11.47
2019-02-23T15:27:35.165Z,10.40
2019-02-23T15:30:14.369Z,9.97
2019-02-23T15:33:01.966Z,10.47
2019-02-23T15:35:35.821Z,9.70
2019-02-23T15:38:22.410Z,10.67
2019-02-23T15:40:56.144Z,10.37
2019-02-23T15:43:28.926Z,10.27
2019-02-23T15:46:09.704Z,9.90
2019-02-23T15:48:57.514Z,11.43
2019-02-23T15:51:26.635Z,13.47
2019-02-23T15:53:55.025Z,12.33
2019-02-23T15:56:23.552Z,11.47
2019-02-23T15:58:55.337Z,11.53
2019-02-23T16:01:35.670Z,10.97
2019-02-23T16:04:06.321Z,11.33
2019-02-23T16:06:36.870Z,11.10
2019-02-23T16:09:09.771Z,10.47
2019-02-23T16:11:38.812Z,11.80
2019-02-23T16:14:08.430Z,11.97
2019-02-23T16:16:36.774Z,11.80
2019-02-23T16:19:06.370Z,10.60
2019-02-23T16:21:38.022Z,11.73
2019-02-23T16:24:06.380Z,11.23
2019-02-23T16:26:37.134Z,10.33
2019-02-23T16:29:05.533Z,11.97
2019-02-23T16:31:40.373Z,11.60
2019-02-23T16:34:08.446Z,10.70
2019-02-23T16:36:36.871Z,10.63
2019-02-23T16:39:08.897Z,12.03
2019-02-23T16:41:40.538Z,11.43
2019-02-23T16:44:11.854Z,10.03
2019-02-23T16:46:40.193Z,10.07
2019-02-23T16:49:10.995Z,10.60
2019-02-23T16:51:39.327Z,11.53
2019-02-23T16:54:08.900Z,10.37
2019-02-23T16:56:37.213Z,10.17
2019-02-23T16:59:05.547Z,9.80
2019-02-23T17:01:33.979Z,10.67
2019-02-23T17:04:04.152Z,9.93
2019-02-23T17:06:33.056Z,10.33
2019-02-23T17:09:05.464Z,9.27
2019-02-23T17:11:36.625Z,10.07
2019-02-23T17:14:07.065Z,11.03
2019-02-23T17:16:36.174Z,10.07
2019-02-23T17:19:04.679Z,10.33
2019-02-23T17:21:35.908Z,11.43
2019-02-23T17:24:12.198Z,11.30
2019-02-23T17:26:45.402Z,10.70
2019-02-23T17:29:14.724Z,10.47
2019-02-23T17:31:53.685Z,12.00
2019-02-23T17:34:24.752Z,11.27
2019-02-23T17:36:53.648Z,11.80
2019-02-23T17:39:23.887Z,12.70
2019-02-23T17:41:52.240Z,11.03
2019-02-23T17:44:21.581Z,11.23
2019-02-23T17:46:50.934Z,9.50
2019-02-23T17:49:24.115Z,10.17
2019-02-23T17:51:54.052Z,10.10
2019-02-23T17:54:23.474Z,9.40
2019-02-23T17:56:51.862Z,10.50
2019-02-23T17:59:22.844Z,10.03
2019-02-23T18:01:53.214Z,9.93
2019-02-23T18:04:21.716Z,9.50
2019-02-23T18:06:50.060Z,9.67
2019-02-23T18:09:18.858Z,9.53
2019-02-23T18:11:51.515Z,9.90
2019-02-23T18:14:21.554Z,9.00
2019-02-23T18:16:51.063Z,8.80
2019-02-23T18:19:19.409Z,8.97
2019-02-23T18:21:54.117Z,9.53
2019-02-23T18:24:22.459Z,9.00
2019-02-23T18:26:50.800Z,9.37
2019-02-23T18:29:19.521Z,12.13
2019-02-23T18:31:49.474Z,16.03
2019-02-23T18:34:21.261Z,9.83
2019-02-23T18:36:53.426Z,8.57
2019-02-23T18:39:21.791Z,9.07
2019-02-23T18:41:53.119Z,9.17
2019-02-23T18:44:21.453Z,9.03
2019-02-23T18:46:49.870Z,9.13
2019-02-23T18:49:18.211Z,8.33
2019-02-23T18:51:46.630Z,9.30
2019-02-23T18:54:15.039Z,8.90
2019-02-23T18:56:43.374Z,9.13
2019-02-23T18:59:11.723Z,8.47
2019-02-23T19:01:40.061Z,9.20
2019-02-23T19:04:08.406Z,9.53
2019-02-23T19:06:37.529Z,8.87
2019-02-23T19:09:05.884Z,8.53
2019-02-23T19:11:35.819Z,9.20
2019-02-23T19:14:04.233Z,9.57
2019-02-23T19:16:32.589Z,10.20
2019-02-23T19:19:00.925Z,9.30
2019-02-23T19:21:29.367Z,9.90
2019-02-23T19:23:57.698Z,10.03
2019-02-23T19:26:26.123Z,10.33
2019-02-23T19:28:54.538Z,10.03
2019-02-23T19:31:23.924Z,10.07
2019-02-23T19:33:52.337Z,9.83
2019-02-23T19:36:20.757Z,9.77
2019-02-23T19:38:49.125Z,10.30
2019-02-23T19:41:17.533Z,9.97
2019-02-23T19:43:45.950Z,9.07
2019-02-23T19:46:14.285Z,9.80
2019-02-23T19:48:43.801Z,9.03
2019-02-23T19:51:12.147Z,9.73
2019-02-23T19:53:41.140Z,9.67
2019-02-23T19:56:09.497Z,9.43
2019-02-23T19:58:38.201Z,8.80
2019-02-23T20:01:07.813Z,9.17
2019-02-23T20:03:36.473Z,9.70
2019-02-23T20:06:07.225Z,8.67
2019-02-23T20:08:38.036Z,9.30
2019-02-23T20:11:08.682Z,10.00
2019-02-23T20:13:37.047Z,8.70
2019-02-23T20:16:05.388Z,12.13
2019-02-23T20:18:33.804Z,9.63
2019-02-23T20:21:02.153Z,9.83
2019-02-23T20:23:30.555Z,9.40
2019-02-23T20:25:58.916Z,10.63
2019-02-23T20:28:27.251Z,9.17
2019-02-23T20:30:55.593Z,9.33
2019-02-23T20:33:24.015Z,9.83
2019-02-23T20:35:52.350Z,9.43
2019-02-23T20:38:22.771Z,10.77
2019-02-23T20:40:51.218Z,9.50
2019-02-23T20:43:19.606Z,9.73
2019-02-23T20:45:47.974Z,9.87
2019-02-23T20:48:16.358Z,10.37
2019-02-23T20:50:44.863Z,8.70
2019-02-23T20:53:13.344Z,9.23
2019-02-23T20:55:41.677Z,9.83
2019-02-23T20:58:10.036Z,8.93
2019-02-23T21:00:38.730Z,9.43
2019-02-23T21:03:07.132Z,9.33
2019-02-23T21:05:35.471Z,8.83
2019-02-23T21:08:04.666Z,9.23
2019-02-23T21:10:33.001Z,9.07
2019-02-23T21:13:01.349Z,9.90
2019-02-23T21:15:30.858Z,9.47
2019-02-23T21:17:59.195Z,9.90
2019-02-23T21:20:27.553Z,10.00
2019-02-23T21:22:57.241Z,10.30
2019-02-23T21:25:25.593Z,11.73
2019-02-23T21:27:54.023Z,11.23
2019-02-23T21:30:22.381Z,11.03
2019-02-23T21:32:50.784Z,10.53
2019-02-23T21:35:19.146Z,10.47
2019-02-23T21:37:47.486Z,10.37
2019-02-23T21:40:15.841Z,10.00
2019-02-23T21:42:44.177Z,9.57
2019-02-23T21:45:12.522Z,9.43
2019-02-23T21:47:42.513Z,10.03
2019-02-23T21:50:10.936Z,9.60
2019-02-23T21:52:39.359Z,8.97
2019-02-23T21:55:08.890Z,9.93
2019-02-23T21:57:39.201Z,8.63
2019-02-23T22:00:10.082Z,9.27
2019-02-23T22:02:38.931Z,8.70
2019-02-23T22:05:12.428Z,9.30
2019-02-23T22:07:37.445Z,9.60
2019-02-23T22:10:07.086Z,8.90
2019-02-23T22:12:35.482Z,9.90
2019-02-23T22:15:04.414Z,10.93
2019-02-23T22:17:35.498Z,9.80
2019-02-23T22:20:06.057Z,9.43
2019-02-23T22:22:34.517Z,10.17
2019-02-23T22:25:02.875Z,10.03
2019-02-23T22:27:32.214Z,10.27
2019-02-23T22:30:00.632Z,9.90
2019-02-23T22:32:29.272Z,10.13
2019-02-23T22:34:57.664Z,10.50
2019-02-23T22:37:27.229Z,10.73
2019-02-23T22:39:58.995Z,11.30
2019-02-23T22:42:28.379Z,11.63
2019-02-23T22:44:57.410Z,11.47
2019-02-23T22:47:25.750Z,11.47
2019-02-23T22:49:54.106Z,10.90
2019-02-23T22:52:22.445Z,11.60
2019-02-23T22:54:50.796Z,11.27
2019-02-23T22:57:19.155Z,10.87
2019-02-23T22:59:47.518Z,11.17
2019-02-23T23:02:20.421Z,11.63
2019-02-23T23:05:01.451Z,10.23
2019-02-23T23:07:31.466Z,10.60
2019-02-23T23:09:59.819Z,10.50
2019-02-23T23:12:28.154Z,9.60
2019-02-23T23:14:58.602Z,10.87
2019-02-23T23:17:28.753Z,11.07
2019-02-23T23:19:57.202Z,10.93
2019-02-23T23:22:28.474Z,10.27
2019-02-23T23:25:00.005Z,10.10
2019-02-23T23:27:28.362Z,10.30
2019-02-23T23:29:57.986Z,10.73
2019-02-23T23:32:26.402Z,10.03
2019-02-23T23:34:54.770Z,11.27
2019-02-23T23:37:23.121Z,10.20
2019-02-23T23:39:51.469Z,10.93
2019-02-23T23:42:20.083Z,9.80
2019-02-23T23:44:48.421Z,10.13
2019-02-23T23:47:16.770Z,11.27
2019-02-23T23:49:45.117Z,10.40
2019-02-23T23:52:13.456Z,11.37
2019-02-23T23:54:41.810Z,11.23
2019-02-23T23:57:10.172Z,10.77
2019-02-23T23:59:38.533Z,10.23
